createdAt,value
2022-11-18T00:04:51.972Z,3.7
2022-11-18T00:12:24.261Z,3.7
2022-11-18T00:19:56.536Z,3.7
2022-11-18T00:27:28.812Z,3.7
2022-11-18T00:35:01.135Z,3.7
2022-11-18T00:42:33.420Z,3.8
2022-11-18T00:50:05.709Z,3.8
2022-11-18T00:57:37.993Z,3.8
2022-11-18T01:05:10.316Z,3.8
2022-11-18T01:12:42.631Z,3.8
2022-11-18T01:20:14.958Z,3.8
2022-11-18T01:27:47.296Z,3.8
2022-11-18T01:35:19.619Z,3.8
2022-11-18T01:42:51.915Z,3.6
2022-11-18T01:50:24.196Z,3.6
2022-11-18T01:57:56.493Z,3.6
2022-11-18T02:05:28.777Z,3.6
2022-11-18T02:13:01.100Z,3.6
2022-11-18T02:20:33.427Z,3.6
2022-11-18T02:28:05.717Z,3.6
2022-11-18T02:35:38.025Z,3.6
2022-11-18T02:43:10.352Z,3.6
2022-11-18T02:50:42.674Z,3.6
2022-11-18T02:58:14.966Z,3.6
2022-11-18T03:05:47.249Z,3.6
2022-11-18T03:13:19.586Z,3.6
2022-11-18T03:20:51.866Z,3.6
2022-11-18T03:28:24.189Z,3.6
2022-11-18T03:35:56.514Z,3.6
2022-11-18T03:43:28.805Z,3.4
2022-11-18T03:51:01.126Z,3.4
2022-11-18T03:58:33.415Z,3.4
2022-11-18T04:06:05.731Z,3.4
2022-11-18T04:13:38.027Z,3.4
2022-11-18T04:21:10.344Z,3.4
2022-11-18T04:28:42.644Z,3.4
2022-11-18T04:36:14.955Z,3.4
2022-11-18T04:43:47.286Z,3.3
2022-11-18T04:51:19.573Z,3.3
2022-11-18T04:58:51.853Z,3.3
2022-11-18T05:06:24.137Z,3.3
2022-11-18T05:13:56.418Z,3.3
2022-11-18T05:19:06.027Z,3.3
2022-11-18T05:19:53.387Z,3.3
2022-11-18T05:20:41.861Z,3.3
2022-11-18T05:21:29.230Z,3.3
2022-11-18T05:22:16.582Z,3.3
2022-11-18T05:23:03.867Z,3.3
2022-11-18T05:23:51.186Z,3.3
2022-11-18T05:24:38.473Z,3.3
2022-11-18T05:25:25.791Z,3.3
2022-11-18T05:26:13.125Z,3.3
2022-11-18T05:27:00.422Z,3.3
2022-11-18T05:27:47.727Z,3.3
2022-11-18T05:28:35.013Z,3.3
2022-11-18T05:29:22.358Z,3.3
2022-11-18T05:30:09.687Z,3.3
2022-11-18T05:30:56.970Z,4.2
2022-11-18T05:31:44.312Z,4.2
2022-11-18T05:32:31.596Z,4.2
2022-11-18T05:33:18.888Z,4.2
2022-11-18T05:34:06.267Z,4.2
2022-11-18T05:34:53.564Z,4.2
2022-11-18T05:35:40.892Z,4.2
2022-11-18T05:36:28.182Z,4.2
2022-11-18T05:37:15.511Z,4.2
2022-11-18T05:38:02.831Z,4.2
2022-11-18T05:38:50.338Z,4.2
2022-11-18T05:39:37.679Z,4.2
2022-11-18T05:40:24.977Z,4.2
2022-11-18T05:41:12.298Z,4.2
2022-11-18T05:41:59.636Z,4.2
2022-11-18T05:42:46.962Z,4.2
2022-11-18T05:43:34.300Z,4.2
2022-11-18T05:44:21.646Z,4.2
2022-11-18T05:45:09.007Z,4.2
2022-11-18T05:45:56.381Z,4.2
2022-11-18T05:46:43.733Z,4.2
2022-11-18T05:47:31.057Z,4.2
2022-11-18T05:48:18.341Z,4.2
2022-11-18T05:49:05.850Z,4.2
2022-11-18T05:49:53.157Z,4.2
2022-11-18T05:50:40.481Z,4.2
2022-11-18T05:51:27.800Z,4.2
2022-11-18T05:52:15.077Z,4.2
2022-11-18T05:53:02.370Z,4.2
2022-11-18T05:53:49.706Z,4.2
2022-11-18T05:54:37.023Z,4.2
2022-11-18T05:55:24.378Z,4.2
2022-11-18T05:56:11.909Z,4.2
2022-11-18T05:56:59.276Z,4.2
2022-11-18T05:57:46.566Z,4.2
2022-11-18T05:58:33.972Z,4.2
2022-11-18T05:59:21.427Z,4.2
2022-11-18T06:00:08.798Z,4.2
2022-11-18T06:00:56.192Z,4.2
2022-11-18T06:01:43.511Z,4.2
2022-11-18T06:02:30.866Z,4.2
2022-11-18T06:03:18.286Z,4.2
2022-11-18T06:04:05.630Z,4.2
2022-11-18T06:04:52.948Z,4.2
2022-11-18T06:05:40.239Z,4.2
2022-11-18T06:06:27.529Z,4.2
2022-11-18T06:07:14.888Z,4.2
2022-11-18T06:08:02.198Z,4.2
2022-11-18T06:08:49.503Z,4.2
2022-11-18T06:09:36.790Z,4.2
2022-11-18T06:10:24.070Z,4.2
2022-11-18T06:11:11.418Z,4.2
2022-11-18T06:11:58.707Z,4.2
2022-11-18T06:12:45.996Z,4.2
2022-11-18T06:13:33.290Z,4.2
2022-11-18T06:14:20.573Z,4.2
2022-11-18T06:15:07.903Z,4.2
2022-11-18T06:15:55.182Z,4.2
2022-11-18T06:16:42.522Z,4.2
2022-11-18T06:17:29.810Z,4.2
2022-11-18T06:18:17.128Z,4.2
2022-11-18T06:19:04.410Z,4.2
2022-11-18T06:19:51.742Z,4.2
2022-11-18T06:20:39.068Z,4.2
2022-11-18T06:21:26.369Z,4.2
2022-11-18T06:22:13.683Z,4.2
2022-11-18T06:23:01.019Z,4.2
2022-11-18T06:23:48.310Z,4.2
2022-11-18T06:24:35.597Z,4.2
2022-11-18T06:25:22.914Z,4.2
2022-11-18T06:26:10.253Z,4.2
2022-11-18T06:26:57.575Z,4.2
2022-11-18T06:27:44.908Z,4.2
2022-11-18T06:28:32.267Z,4.2
2022-11-18T06:29:24.390Z,4.2
2022-11-18T06:30:14.628Z,4.2
2022-11-18T06:31:02.224Z,10.7
2022-11-18T06:31:49.530Z,10.7
2022-11-18T06:32:36.821Z,10.7
2022-11-18T06:33:24.299Z,10.7
2022-11-18T06:34:11.589Z,10.7
2022-11-18T06:34:58.883Z,10.7
2022-11-18T06:35:46.304Z,10.7
2022-11-18T06:36:33.596Z,10.7
2022-11-18T06:37:20.975Z,10.7
2022-11-18T06:38:08.355Z,10.7
2022-11-18T06:38:55.664Z,10.7
2022-11-18T06:39:42.962Z,10.7
2022-11-18T06:40:34.535Z,10.7
2022-11-18T06:41:22.323Z,10.7
2022-11-18T06:42:09.744Z,10.7
2022-11-18T06:42:57.035Z,10.7
2022-11-18T06:43:44.355Z,10.7
2022-11-18T06:44:31.843Z,10.7
2022-11-18T06:45:19.257Z,10.7
2022-11-18T06:46:09.264Z,10.7
2022-11-18T06:46:56.886Z,10.7
2022-11-18T06:47:44.338Z,10.7
2022-11-18T06:48:31.634Z,10.7
2022-11-18T06:49:19.163Z,10.7
2022-11-18T06:50:06.624Z,10.7
2022-11-18T06:50:53.915Z,10.7
2022-11-18T06:51:41.235Z,10.7
2022-11-18T06:52:28.677Z,10.7
2022-11-18T06:53:15.977Z,10.7
2022-11-18T06:54:09.101Z,10.7
2022-11-18T06:54:57.924Z,10.7
2022-11-18T06:55:45.277Z,10.7
2022-11-18T06:56:32.565Z,10.7
2022-11-18T06:57:19.865Z,10.7
2022-11-18T06:58:07.210Z,10.7
2022-11-18T06:58:54.494Z,10.7
2022-11-18T06:59:41.814Z,10.7
2022-11-18T07:00:29.215Z,10.7
2022-11-18T07:01:16.650Z,10.7
2022-11-18T07:02:03.996Z,10.7
2022-11-18T07:02:51.353Z,10.7
2022-11-18T07:03:38.652Z,10.7
2022-11-18T07:04:25.967Z,10.7
2022-11-18T07:05:13.385Z,10.7
2022-11-18T07:06:00.707Z,10.7
2022-11-18T07:06:48.034Z,10.7
2022-11-18T07:07:38.953Z,10.7
2022-11-18T07:08:29.193Z,10.7
2022-11-18T07:09:16.920Z,10.7
2022-11-18T07:10:04.550Z,10.7
2022-11-18T07:10:51.837Z,10.7
2022-11-18T07:11:39.129Z,10.7
2022-11-18T07:12:26.447Z,10.7
2022-11-18T07:13:13.796Z,10.7
2022-11-18T07:14:01.155Z,10.7
2022-11-18T07:14:48.449Z,10.7
2022-11-18T07:15:35.779Z,10.7
2022-11-18T07:16:23.111Z,10.7
2022-11-18T07:17:10.436Z,10.7
2022-11-18T07:17:57.726Z,10.7
2022-11-18T07:18:45.101Z,10.7
2022-11-18T07:19:35.738Z,10.7
2022-11-18T07:20:23.458Z,10.7
2022-11-18T07:21:10.750Z,10.7
2022-11-18T07:21:58.034Z,10.7
2022-11-18T07:22:45.356Z,10.7
2022-11-18T07:23:32.713Z,10.7
2022-11-18T07:24:20.022Z,10.7
2022-11-18T07:25:07.308Z,10.7
2022-11-18T07:25:54.769Z,10.7
2022-11-18T07:26:42.189Z,10.7
2022-11-18T07:27:29.508Z,10.7
2022-11-18T07:28:16.944Z,10.7
2022-11-18T07:29:04.275Z,10.7
2022-11-18T07:29:51.603Z,10.7
2022-11-18T07:30:38.994Z,10.7
2022-11-18T07:31:26.293Z,12.6
2022-11-18T07:32:13.580Z,12.6
2022-11-18T07:33:01.171Z,12.6
2022-11-18T07:33:48.545Z,12.6
2022-11-18T07:34:35.872Z,12.6
2022-11-18T07:35:23.298Z,12.6
2022-11-18T07:36:10.606Z,12.6
2022-11-18T07:36:57.936Z,12.6
2022-11-18T07:37:45.380Z,12.6
2022-11-18T07:38:32.674Z,12.6
2022-11-18T07:39:20.313Z,12.6
2022-11-18T07:40:07.901Z,12.6
2022-11-18T07:40:55.411Z,12.6
2022-11-18T07:41:42.721Z,12.6
2022-11-18T07:42:30.047Z,12.6
2022-11-18T07:43:17.409Z,12.6
2022-11-18T07:44:04.755Z,12.6
2022-11-18T07:44:52.055Z,12.6
2022-11-18T07:45:39.766Z,12.6
2022-11-18T07:46:27.056Z,12.6
2022-11-18T07:47:14.347Z,12.6
2022-11-18T07:48:01.794Z,12.6
2022-11-18T07:48:49.086Z,12.6
2022-11-18T07:49:36.372Z,12.6
2022-11-18T07:50:23.860Z,12.6
2022-11-18T07:51:11.164Z,12.6
2022-11-18T07:51:58.486Z,12.6
2022-11-18T07:52:45.901Z,12.6
2022-11-18T07:53:33.413Z,12.6
2022-11-18T07:54:20.750Z,12.6
2022-11-18T07:55:08.363Z,12.6
2022-11-18T07:55:55.666Z,12.6
2022-11-18T07:56:43.218Z,12.6
2022-11-18T07:57:30.521Z,12.6
2022-11-18T07:58:17.815Z,12.6
2022-11-18T07:59:05.149Z,12.6
2022-11-18T07:59:52.540Z,12.6
2022-11-18T08:00:39.834Z,12.6
2022-11-18T08:01:27.346Z,12.6
2022-11-18T08:02:14.701Z,12.6
2022-11-18T08:03:02.028Z,12.6
2022-11-18T08:03:49.326Z,12.6
2022-11-18T08:04:36.838Z,12.6
2022-11-18T08:05:24.206Z,12.6
2022-11-18T08:06:11.538Z,12.6
2022-11-18T08:06:58.965Z,12.6
2022-11-18T08:07:46.453Z,12.6
2022-11-18T08:08:33.822Z,12.6
2022-11-18T08:09:21.275Z,12.6
2022-11-18T08:10:08.716Z,12.6
2022-11-18T08:10:56.050Z,12.6
2022-11-18T08:11:43.437Z,12.6
2022-11-18T08:12:30.770Z,12.6
2022-11-18T08:13:18.069Z,12.6
2022-11-18T08:14:05.496Z,12.6
2022-11-18T08:14:52.837Z,12.6
2022-11-18T08:15:40.174Z,12.6
2022-11-18T08:16:27.553Z,12.6
2022-11-18T08:17:14.860Z,12.6
2022-11-18T08:18:02.165Z,12.6
2022-11-18T08:18:49.577Z,12.6
2022-11-18T08:19:36.875Z,12.6
2022-11-18T08:20:24.175Z,12.6
2022-11-18T08:21:11.596Z,12.6
2022-11-18T08:21:58.877Z,12.6
2022-11-18T08:22:46.214Z,12.6
2022-11-18T08:23:38.827Z,12.6
2022-11-18T08:24:28.924Z,12.6
2022-11-18T08:25:16.367Z,12.6
2022-11-18T08:26:03.685Z,12.6
2022-11-18T08:26:51.036Z,12.6
2022-11-18T08:27:38.369Z,12.6
2022-11-18T08:28:25.702Z,12.6
2022-11-18T08:29:13.008Z,12.6
2022-11-18T08:30:00.458Z,12.6
2022-11-18T08:30:47.792Z,14.0
2022-11-18T08:31:35.053Z,14.0
2022-11-18T08:32:22.484Z,14.0
2022-11-18T08:33:09.797Z,14.0
2022-11-18T08:33:57.132Z,14.0
2022-11-18T08:34:44.519Z,14.0
2022-11-18T08:35:31.878Z,14.0
2022-11-18T08:36:19.228Z,14.0
2022-11-18T08:37:06.590Z,14.0
2022-11-18T08:37:53.924Z,14.0
2022-11-18T08:38:41.257Z,14.0
2022-11-18T08:39:28.616Z,14.0
2022-11-18T08:40:15.939Z,14.0
2022-11-18T08:41:03.238Z,14.0
2022-11-18T08:41:51.111Z,14.0
2022-11-18T08:42:38.719Z,14.0
2022-11-18T08:43:26.018Z,14.0
2022-11-18T08:44:13.307Z,14.0
2022-11-18T08:45:00.754Z,14.0
2022-11-18T08:45:48.049Z,14.0
2022-11-18T08:46:35.366Z,14.0
2022-11-18T08:47:22.800Z,14.0
2022-11-18T08:48:10.101Z,14.0
2022-11-18T08:48:57.423Z,14.0
2022-11-18T08:49:44.863Z,14.0
2022-11-18T08:50:32.196Z,14.0
2022-11-18T08:51:19.492Z,14.0
2022-11-18T08:52:06.937Z,14.0
2022-11-18T08:52:54.234Z,14.0
2022-11-18T08:53:41.552Z,14.0
2022-11-18T08:54:28.911Z,14.0
2022-11-18T08:55:16.245Z,14.0
2022-11-18T08:56:03.554Z,14.0
2022-11-18T08:56:50.999Z,14.0
2022-11-18T08:57:38.324Z,14.0
2022-11-18T08:58:25.625Z,14.0
2022-11-18T08:59:13.015Z,14.0
2022-11-18T09:00:00.426Z,14.0
2022-11-18T09:00:47.858Z,14.0
2022-11-18T09:01:35.301Z,14.0
2022-11-18T09:02:22.613Z,14.0
2022-11-18T09:03:09.912Z,14.0
2022-11-18T09:03:57.330Z,14.0
2022-11-18T09:04:44.637Z,14.0
2022-11-18T09:05:31.980Z,14.0
2022-11-18T09:06:19.347Z,14.0
2022-11-18T09:07:06.647Z,14.0
2022-11-18T09:07:54.185Z,14.0
2022-11-18T09:08:41.594Z,14.0
2022-11-18T09:09:28.874Z,14.0
2022-11-18T09:10:16.170Z,14.0
2022-11-18T09:11:03.561Z,14.0
2022-11-18T09:11:50.867Z,14.0
2022-11-18T09:12:38.437Z,14.0
2022-11-18T09:13:49.828Z,14.0
2022-11-18T09:15:20.927Z,14.0
2022-11-18T09:16:09.071Z,14.0
2022-11-18T09:16:56.398Z,14.0
2022-11-18T09:17:43.832Z,14.0
2022-11-18T09:18:31.159Z,14.0
2022-11-18T09:19:48.216Z,14.0
2022-11-18T09:20:15.813Z,14.0
2022-11-18T09:21:03.202Z,14.0
2022-11-18T09:21:50.532Z,14.0
2022-11-18T09:22:37.877Z,14.0
2022-11-18T09:23:25.269Z,14.0
2022-11-18T09:24:12.563Z,14.0
2022-11-18T09:24:59.850Z,14.0
2022-11-18T09:25:47.445Z,14.0
2022-11-18T09:26:35.210Z,14.0
2022-11-18T09:27:22.504Z,14.0
2022-11-18T09:28:09.920Z,14.0
2022-11-18T09:28:57.308Z,14.0
2022-11-18T09:29:44.662Z,14.0
2022-11-18T09:30:32.022Z,14.0
2022-11-18T09:31:19.324Z,15.5
2022-11-18T09:32:06.642Z,15.5
2022-11-18T09:32:54.026Z,15.5
2022-11-18T09:33:41.312Z,15.5
2022-11-18T09:34:28.648Z,15.5
2022-11-18T09:35:16.044Z,15.5
2022-11-18T09:36:03.385Z,15.5
2022-11-18T09:36:50.676Z,15.5
2022-11-18T09:37:38.109Z,15.5
2022-11-18T09:38:25.406Z,15.5
2022-11-18T09:39:12.825Z,15.5
2022-11-18T09:40:00.331Z,15.5
2022-11-18T09:40:47.723Z,15.5
2022-11-18T09:41:35.052Z,15.5
2022-11-18T09:42:22.536Z,15.5
2022-11-18T09:43:09.857Z,15.5
2022-11-18T09:43:57.365Z,15.5
2022-11-18T09:44:44.747Z,15.5
2022-11-18T09:45:32.092Z,15.5
2022-11-18T09:46:19.466Z,15.5
2022-11-18T09:47:06.774Z,15.5
2022-11-18T09:47:54.081Z,15.5
2022-11-18T09:48:41.452Z,15.5
2022-11-18T09:49:28.819Z,15.5
2022-11-18T09:50:47.233Z,15.5
2022-11-18T09:51:13.469Z,15.5
2022-11-18T09:52:00.825Z,15.5
2022-11-18T09:52:48.128Z,15.5
2022-11-18T09:53:35.505Z,15.5
2022-11-18T09:54:23.347Z,15.5
2022-11-18T09:55:10.901Z,15.5
2022-11-18T09:55:58.198Z,15.5
2022-11-18T09:56:45.695Z,15.5
2022-11-18T09:57:33.111Z,15.5
2022-11-18T09:58:20.412Z,15.5
2022-11-18T09:59:07.739Z,15.5
2022-11-18T09:59:55.155Z,15.5
2022-11-18T10:00:42.438Z,15.5
2022-11-18T10:01:29.797Z,15.5
2022-11-18T10:02:17.224Z,15.5
2022-11-18T10:03:04.524Z,15.5
2022-11-18T10:03:51.855Z,15.5
2022-11-18T10:04:39.201Z,15.5
2022-11-18T10:05:26.535Z,15.5
2022-11-18T10:06:15.301Z,15.5
2022-11-18T10:07:05.611Z,15.5
2022-11-18T10:07:53.007Z,15.5
2022-11-18T10:08:40.314Z,15.5
2022-11-18T10:09:27.639Z,15.5
2022-11-18T10:10:15.025Z,15.5
2022-11-18T10:11:02.397Z,15.5
2022-11-18T10:11:52.080Z,15.5
2022-11-18T10:12:39.719Z,15.5
2022-11-18T10:13:27.064Z,15.5
2022-11-18T10:14:14.422Z,15.5
2022-11-18T10:15:01.767Z,15.5
2022-11-18T10:15:49.105Z,15.5
2022-11-18T10:16:36.431Z,15.5
2022-11-18T10:17:23.771Z,15.5
2022-11-18T10:18:11.111Z,15.5
2022-11-18T10:19:00.994Z,15.5
2022-11-18T10:19:48.561Z,15.5
2022-11-18T10:20:35.965Z,15.5
2022-11-18T10:21:23.292Z,15.5
2022-11-18T10:22:18.119Z,15.5
2022-11-18T10:23:07.893Z,15.5
2022-11-18T10:23:55.303Z,15.5
2022-11-18T10:24:42.597Z,15.5
2022-11-18T10:25:29.923Z,15.5
2022-11-18T10:26:17.314Z,15.5
2022-11-18T10:27:04.814Z,15.5
2022-11-18T10:27:52.171Z,15.5
2022-11-18T10:28:39.550Z,15.5
2022-11-18T10:29:26.877Z,15.5
2022-11-18T10:30:14.189Z,15.5
2022-11-18T10:31:01.597Z,18.6
2022-11-18T10:31:48.923Z,18.6
2022-11-18T10:32:36.328Z,18.6
2022-11-18T10:33:23.662Z,18.6
2022-11-18T10:34:10.987Z,18.6
2022-11-18T10:34:58.519Z,18.6
2022-11-18T10:35:45.844Z,18.6
2022-11-18T10:36:33.155Z,18.6
2022-11-18T10:37:20.526Z,18.6
2022-11-18T10:38:09.045Z,18.6
2022-11-18T10:38:56.525Z,18.6
2022-11-18T10:39:43.874Z,18.6
2022-11-18T10:40:31.164Z,18.6
2022-11-18T10:41:18.493Z,18.6
2022-11-18T10:42:05.793Z,18.6
2022-11-18T10:42:53.084Z,18.6
2022-11-18T10:43:40.407Z,18.6
2022-11-18T10:44:27.768Z,18.6
2022-11-18T10:45:15.092Z,18.6
2022-11-18T10:46:02.397Z,18.6
2022-11-18T10:46:49.693Z,18.6
2022-11-18T10:47:36.986Z,18.6
2022-11-18T10:48:24.284Z,18.6
2022-11-18T10:49:11.624Z,18.6
2022-11-18T10:49:59.013Z,18.6
2022-11-18T10:50:50.480Z,18.6
2022-11-18T10:51:41.033Z,18.6
2022-11-18T10:52:28.407Z,18.6
2022-11-18T10:53:15.767Z,18.6
2022-11-18T10:54:03.169Z,18.6
2022-11-18T10:54:50.511Z,18.6
2022-11-18T10:55:37.864Z,18.6
2022-11-18T10:56:25.178Z,18.6
2022-11-18T10:57:12.566Z,18.6
2022-11-18T10:57:59.991Z,18.6
2022-11-18T10:58:47.340Z,18.6
2022-11-18T10:59:34.663Z,18.6
2022-11-18T11:00:22.032Z,18.6
2022-11-18T11:01:09.456Z,18.6
2022-11-18T11:01:56.884Z,18.6
2022-11-18T11:02:44.284Z,18.6
2022-11-18T11:03:31.615Z,18.6
2022-11-18T11:04:19.359Z,18.6
2022-11-18T11:05:07.111Z,18.6
2022-11-18T11:05:54.440Z,18.6
2022-11-18T11:06:41.737Z,18.6
2022-11-18T11:07:29.199Z,18.6
2022-11-18T11:08:35.924Z,18.6
2022-11-18T11:09:13.843Z,18.6
2022-11-18T11:10:01.297Z,18.6
2022-11-18T11:10:52.498Z,18.6
2022-11-18T11:11:40.171Z,18.6
2022-11-18T11:12:28.143Z,18.6
2022-11-18T11:13:15.594Z,18.6
2022-11-18T11:14:02.885Z,18.6
2022-11-18T11:14:50.138Z,18.6
2022-11-18T11:15:37.639Z,18.6
2022-11-18T11:16:26.529Z,18.6
2022-11-18T11:17:14.206Z,18.6
2022-11-18T11:18:01.636Z,18.6
2022-11-18T11:18:48.939Z,18.6
2022-11-18T11:19:36.276Z,18.6
2022-11-18T11:20:23.762Z,18.6
2022-11-18T11:21:11.072Z,18.6
2022-11-18T11:21:58.342Z,18.6
2022-11-18T11:22:45.820Z,18.6
2022-11-18T11:23:33.092Z,18.6
2022-11-18T11:24:20.619Z,18.6
2022-11-18T11:25:07.946Z,18.6
2022-11-18T11:28:47.120Z,18.6
2022-11-18T11:29:34.588Z,18.6
2022-11-18T11:30:21.981Z,18.6
2022-11-18T11:31:09.314Z,15.6
2022-11-18T11:31:56.668Z,15.6
2022-11-18T11:32:43.982Z,15.6
2022-11-18T11:33:31.332Z,15.6
2022-11-18T11:34:18.692Z,15.6
2022-11-18T11:35:06.025Z,15.6
2022-11-18T11:35:53.334Z,15.6
2022-11-18T11:36:40.779Z,15.6
2022-11-18T11:37:28.096Z,15.6
2022-11-18T11:38:15.409Z,15.6
2022-11-18T11:39:04.802Z,15.6
2022-11-18T11:39:52.364Z,15.6
2022-11-18T11:40:39.635Z,15.6
2022-11-18T11:41:26.968Z,15.6
2022-11-18T11:42:14.285Z,15.6
2022-11-18T11:43:01.572Z,15.6
2022-11-18T11:43:48.895Z,15.6
2022-11-18T11:44:36.227Z,15.6
2022-11-18T11:45:23.503Z,15.6
2022-11-18T11:46:10.807Z,15.6
2022-11-18T11:46:58.084Z,15.6
2022-11-18T11:47:45.413Z,15.6
2022-11-18T11:48:32.768Z,15.6
2022-11-18T11:49:20.298Z,15.6
2022-11-18T11:50:07.926Z,15.6
2022-11-18T11:51:03.037Z,15.6
2022-11-18T11:51:51.411Z,15.6
2022-11-18T11:52:38.812Z,15.6
2022-11-18T11:53:26.159Z,15.6
2022-11-18T11:54:13.453Z,15.6
2022-11-18T11:55:00.800Z,15.6
2022-11-18T11:55:48.118Z,15.6
2022-11-18T11:56:35.413Z,15.6
2022-11-18T11:57:22.770Z,15.6
2022-11-18T11:58:10.051Z,15.6
2022-11-18T11:58:57.448Z,15.6
2022-11-18T11:59:44.739Z,15.6
2022-11-18T12:00:32.085Z,15.6
2022-11-18T12:01:19.401Z,15.6
2022-11-18T12:02:06.916Z,15.6
2022-11-18T12:02:54.247Z,15.6
2022-11-18T12:03:43.191Z,15.6
2022-11-18T12:04:32.261Z,15.6
2022-11-18T12:05:19.651Z,15.6
2022-11-18T12:06:06.985Z,15.6
2022-11-18T12:06:54.386Z,15.6
2022-11-18T12:07:41.809Z,15.6
2022-11-18T12:08:29.234Z,15.6
2022-11-18T12:09:16.862Z,15.6
2022-11-18T12:10:04.452Z,15.6
2022-11-18T12:10:52.098Z,15.6
2022-11-18T12:11:39.367Z,15.6
2022-11-18T12:12:26.659Z,15.6
2022-11-18T12:13:14.108Z,15.6
2022-11-18T12:14:01.391Z,15.6
2022-11-18T12:14:48.678Z,15.6
2022-11-18T12:15:36.123Z,15.6
2022-11-18T12:16:23.398Z,15.6
2022-11-18T12:17:10.674Z,15.6
2022-11-18T12:17:58.107Z,15.6
2022-11-18T12:18:45.476Z,15.6
2022-11-18T12:19:32.750Z,15.6
2022-11-18T12:20:20.200Z,15.6
2022-11-18T12:21:07.676Z,15.6
2022-11-18T12:21:55.021Z,15.6
2022-11-18T12:22:42.435Z,15.6
2022-11-18T12:23:29.712Z,15.6
2022-11-18T12:24:16.993Z,15.6
2022-11-18T12:25:04.475Z,15.6
2022-11-18T12:25:51.756Z,15.6
2022-11-18T12:26:39.081Z,15.6
2022-11-18T12:27:26.509Z,15.6
2022-11-18T12:28:13.794Z,15.6
2022-11-18T12:29:01.071Z,15.6
2022-11-18T12:29:48.526Z,15.6
2022-11-18T12:30:35.808Z,15.6
2022-11-18T12:31:23.096Z,15.4
2022-11-18T12:32:10.506Z,15.4
2022-11-18T12:32:57.977Z,15.4
2022-11-18T12:33:45.322Z,15.4
2022-11-18T12:34:32.708Z,15.4
2022-11-18T12:35:20.011Z,15.4
2022-11-18T12:36:07.324Z,15.4
2022-11-18T12:36:54.763Z,15.4
2022-11-18T12:37:42.094Z,15.4
2022-11-18T12:38:29.418Z,15.4
2022-11-18T12:39:17.009Z,15.4
2022-11-18T12:40:04.494Z,15.4
2022-11-18T12:40:53.180Z,15.4
2022-11-18T12:41:40.641Z,15.4
2022-11-18T12:42:28.104Z,15.4
2022-11-18T12:43:15.436Z,15.4
2022-11-18T12:44:02.750Z,15.4
2022-11-18T12:44:50.185Z,15.4
2022-11-18T12:45:37.508Z,15.4
2022-11-18T12:46:24.837Z,15.4
2022-11-18T12:47:12.249Z,15.4
2022-11-18T12:47:59.538Z,15.4
2022-11-18T12:48:46.835Z,15.4
2022-11-18T12:49:34.258Z,15.4
2022-11-18T12:50:21.565Z,15.4
2022-11-18T12:51:08.842Z,15.4
2022-11-18T12:51:56.313Z,15.4
2022-11-18T12:52:43.628Z,15.4
2022-11-18T12:53:30.912Z,15.4
2022-11-18T12:54:18.331Z,15.4
2022-11-18T12:55:05.609Z,15.4
2022-11-18T12:55:52.959Z,15.4
2022-11-18T12:56:40.376Z,15.4
2022-11-18T12:57:27.666Z,15.4
2022-11-18T12:58:15.047Z,15.4
2022-11-18T12:59:02.372Z,15.4
2022-11-18T12:59:49.682Z,15.4
2022-11-18T13:00:37.008Z,15.4
2022-11-18T13:01:24.500Z,15.4
2022-11-18T13:02:11.861Z,15.4
2022-11-18T13:02:59.277Z,15.4
2022-11-18T13:03:46.617Z,15.4
2022-11-18T13:04:33.936Z,15.4
2022-11-18T13:05:21.273Z,15.4
2022-11-18T13:06:08.737Z,15.4
2022-11-18T13:06:56.095Z,15.4
2022-11-18T13:07:43.483Z,15.4
2022-11-18T13:08:30.833Z,15.4
2022-11-18T13:09:18.242Z,15.4
2022-11-18T13:10:05.678Z,15.4
2022-11-18T13:10:55.858Z,15.4
2022-11-18T13:11:43.535Z,15.4
2022-11-18T13:12:30.868Z,15.4
2022-11-18T13:13:18.146Z,15.4
2022-11-18T13:14:05.464Z,15.4
2022-11-18T13:14:52.778Z,15.4
2022-11-18T13:15:40.105Z,15.4
2022-11-18T13:16:27.401Z,15.4
2022-11-18T13:17:14.777Z,15.4
2022-11-18T13:18:02.088Z,15.4
2022-11-18T13:18:49.407Z,15.4
2022-11-18T13:19:36.726Z,15.4
2022-11-18T13:20:24.068Z,15.4
2022-11-18T13:21:11.405Z,15.4
2022-11-18T13:21:58.715Z,15.4
2022-11-18T13:22:46.025Z,15.4
2022-11-18T13:23:33.505Z,15.4
2022-11-18T13:24:20.844Z,15.4
2022-11-18T13:25:08.211Z,15.4
2022-11-18T13:25:55.512Z,15.4
2022-11-18T13:26:42.893Z,15.4
2022-11-18T13:27:30.201Z,15.4
2022-11-18T13:28:17.523Z,15.4
2022-11-18T13:29:04.846Z,15.4
2022-11-18T13:29:54.192Z,15.4
2022-11-18T13:30:41.764Z,15.4
2022-11-18T13:31:29.145Z,13.9
2022-11-18T13:32:16.442Z,13.9
2022-11-18T13:33:03.720Z,13.9
2022-11-18T13:33:51.166Z,13.9
2022-11-18T13:34:38.506Z,13.9
2022-11-18T13:35:25.830Z,13.9
2022-11-18T13:36:13.169Z,13.9
2022-11-18T13:37:00.446Z,13.9
2022-11-18T13:37:47.761Z,13.9
2022-11-18T13:38:35.111Z,13.9
2022-11-18T13:39:22.409Z,13.9
2022-11-18T13:40:09.771Z,13.9
2022-11-18T13:40:57.142Z,13.9
2022-11-18T13:41:44.416Z,13.9
2022-11-18T13:42:31.745Z,13.9
2022-11-18T13:43:19.116Z,13.9
2022-11-18T13:44:06.546Z,13.9
2022-11-18T13:44:53.851Z,13.9
2022-11-18T13:45:41.221Z,13.9
2022-11-18T13:46:28.551Z,13.9
2022-11-18T13:47:15.870Z,13.9
2022-11-18T13:48:03.227Z,13.9
2022-11-18T13:48:50.526Z,13.9
2022-11-18T13:49:37.856Z,13.9
2022-11-18T13:50:25.265Z,13.9
2022-11-18T13:51:12.586Z,13.9
2022-11-18T13:51:59.900Z,13.9
2022-11-18T13:52:47.421Z,13.9
2022-11-18T13:53:34.704Z,13.9
2022-11-18T13:54:22.024Z,13.9
2022-11-18T13:55:09.420Z,13.9
2022-11-18T13:55:56.718Z,13.9
2022-11-18T13:56:44.481Z,13.9
2022-11-18T13:57:31.776Z,13.9
2022-11-18T13:58:19.188Z,13.9
2022-11-18T13:59:22.379Z,13.9
2022-11-18T14:00:04.348Z,13.9
2022-11-18T14:00:51.760Z,13.9
2022-11-18T14:01:39.100Z,13.9
2022-11-18T14:02:26.375Z,13.9
2022-11-18T14:03:13.739Z,13.9
2022-11-18T14:04:01.021Z,13.9
2022-11-18T14:04:48.299Z,13.9
2022-11-18T14:05:35.698Z,13.9
2022-11-18T14:06:23.005Z,13.9
2022-11-18T14:07:10.321Z,13.9
2022-11-18T14:07:57.739Z,13.9
2022-11-18T14:08:45.091Z,13.9
2022-11-18T14:09:32.406Z,13.9
2022-11-18T14:10:19.830Z,13.9
2022-11-18T14:11:07.191Z,13.9
2022-11-18T14:11:54.512Z,13.9
2022-11-18T14:12:41.916Z,13.9
2022-11-18T14:13:29.252Z,13.9
2022-11-18T14:14:16.683Z,13.9
2022-11-18T14:15:04.140Z,13.9
2022-11-18T14:15:51.427Z,13.9
2022-11-18T14:16:38.720Z,13.9
2022-11-18T14:17:26.171Z,13.9
2022-11-18T14:18:13.489Z,13.9
2022-11-18T14:19:00.797Z,13.9
2022-11-18T14:19:48.265Z,13.9
2022-11-18T14:20:35.622Z,13.9
2022-11-18T14:21:22.937Z,13.9
2022-11-18T14:22:13.042Z,13.9
2022-11-18T14:23:00.597Z,13.9
2022-11-18T14:23:47.944Z,13.9
2022-11-18T14:24:35.234Z,13.9
2022-11-18T14:25:22.498Z,13.9
2022-11-18T14:26:09.838Z,13.9
2022-11-18T14:26:57.159Z,13.9
2022-11-18T14:27:44.450Z,13.9
2022-11-18T14:28:31.797Z,13.9
2022-11-18T14:29:19.324Z,13.9
2022-11-18T14:30:06.917Z,13.9
2022-11-18T14:30:54.295Z,13.3
2022-11-18T14:31:41.572Z,13.3
2022-11-18T14:32:28.951Z,13.3
2022-11-18T14:33:16.298Z,13.3
2022-11-18T14:34:03.611Z,13.3
2022-11-18T14:34:51.072Z,13.3
2022-11-18T14:35:38.407Z,13.3
2022-11-18T14:36:25.745Z,13.3
2022-11-18T14:37:13.079Z,13.3
2022-11-18T14:38:35.507Z,13.3
2022-11-18T14:39:19.789Z,13.3
2022-11-18T14:39:55.166Z,13.3
2022-11-18T14:40:42.562Z,13.3
2022-11-18T14:41:29.895Z,13.3
2022-11-18T14:42:17.239Z,13.3
2022-11-18T14:43:04.653Z,13.3
2022-11-18T14:43:51.959Z,13.3
2022-11-18T14:44:39.239Z,13.3
2022-11-18T14:45:26.693Z,13.3
2022-11-18T14:46:13.968Z,13.3
2022-11-18T14:47:01.270Z,13.3
2022-11-18T14:47:48.704Z,13.3
2022-11-18T14:48:35.991Z,13.3
2022-11-18T14:49:23.618Z,13.3
2022-11-18T14:50:11.119Z,13.3
2022-11-18T14:50:58.489Z,13.3
2022-11-18T14:51:45.843Z,13.3
2022-11-18T14:52:33.299Z,13.3
2022-11-18T14:53:20.837Z,13.3
2022-11-18T14:54:08.122Z,13.3
2022-11-18T14:54:55.501Z,13.3
2022-11-18T14:55:42.844Z,13.3
2022-11-18T14:56:30.182Z,13.3
2022-11-18T14:57:17.563Z,13.3
2022-11-18T14:58:04.896Z,13.3
2022-11-18T14:58:52.213Z,13.3
2022-11-18T14:59:39.498Z,13.3
2022-11-18T15:00:26.807Z,13.3
2022-11-18T15:01:14.213Z,13.3
2022-11-18T15:02:01.723Z,13.3
2022-11-18T15:02:49.109Z,13.3
2022-11-18T15:03:36.473Z,13.3
2022-11-18T15:04:23.775Z,13.3
2022-11-18T15:05:11.103Z,13.3
2022-11-18T15:05:58.641Z,13.3
2022-11-18T15:06:45.979Z,13.3
2022-11-18T15:07:33.368Z,13.3
2022-11-18T15:08:20.758Z,13.3
2022-11-18T15:09:08.096Z,13.3
2022-11-18T15:09:55.404Z,13.3
2022-11-18T15:10:42.733Z,13.3
2022-11-18T15:11:30.072Z,13.3
2022-11-18T15:12:17.371Z,13.3
2022-11-18T15:13:04.657Z,13.3
2022-11-18T15:13:52.059Z,13.3
2022-11-18T15:14:39.361Z,13.3
2022-11-18T15:15:26.705Z,13.3
2022-11-18T15:16:13.994Z,13.3
2022-11-18T15:17:01.641Z,13.3
2022-11-18T15:17:53.742Z,13.3
2022-11-18T15:18:41.443Z,13.3
2022-11-18T15:19:31.991Z,13.3
2022-11-18T15:20:19.622Z,13.3
2022-11-18T15:21:06.964Z,13.3
2022-11-18T15:21:54.247Z,13.3
2022-11-18T15:22:41.609Z,13.3
2022-11-18T15:23:29.957Z,13.3
2022-11-18T15:24:17.941Z,13.3
2022-11-18T15:25:05.635Z,13.3
2022-11-18T15:25:53.019Z,13.3